createdAt,value
2019-03-22T00:00:52.711Z,5.87
2019-03-22T00:01:57.587Z,6.09
2019-03-22T00:03:02.994Z,6.08
2019-03-22T00:04:08.595Z,6.03
2019-03-22T00:05:14.177Z,6.02
2019-03-22T00:06:19.779Z,5.99
2019-03-22T00:07:25.077Z,5.93
2019-03-22T00:08:30.665Z,5.91
2019-03-22T00:09:36.311Z,6.07
2019-03-22T00:10:41.898Z,6.10
2019-03-22T00:11:47.528Z,5.93
2019-03-22T00:12:53.145Z,5.79
2019-03-22T00:13:58.765Z,5.69
2019-03-22T00:15:03.670Z,5.57
2019-03-22T00:16:09.262Z,5.55
2019-03-22T00:17:14.882Z,5.54
2019-03-22T00:18:20.482Z,5.59
2019-03-22T00:19:26.098Z,5.63
2019-03-22T00:20:31.682Z,5.67
2019-03-22T00:21:37.284Z,5.67
2019-03-22T00:22:42.882Z,5.65
2019-03-22T00:23:48.468Z,5.63
2019-03-22T00:24:54.112Z,5.62
2019-03-22T00:25:59.702Z,5.61
2019-03-22T00:27:15.631Z,5.58
2019-03-22T00:28:10.550Z,5.53
2019-03-22T00:29:16.409Z,5.44
2019-03-22T00:30:22.054Z,5.39
2019-03-22T00:31:27.655Z,5.31
2019-03-22T00:32:33.250Z,5.21
2019-03-22T00:33:38.839Z,5.19
2019-03-22T00:34:44.497Z,5.24
2019-03-22T00:35:49.716Z,5.27
2019-03-22T00:36:54.984Z,5.31
2019-03-22T00:38:00.602Z,5.38
2019-03-22T00:39:05.503Z,5.53
2019-03-22T00:40:10.443Z,5.65
2019-03-22T00:41:16.028Z,5.75
2019-03-22T00:42:21.654Z,5.70
2019-03-22T00:43:27.300Z,5.62
2019-03-22T00:44:32.919Z,5.53
2019-03-22T00:45:38.478Z,5.49
2019-03-22T00:46:44.099Z,5.48
2019-03-22T00:47:49.697Z,5.41
2019-03-22T00:48:55.317Z,5.35
2019-03-22T00:50:00.946Z,5.31
2019-03-22T00:51:06.552Z,5.30
2019-03-22T00:52:12.151Z,5.28
2019-03-22T00:53:17.704Z,5.27
2019-03-22T00:54:23.313Z,5.25
2019-03-22T00:55:28.924Z,5.20
2019-03-22T00:56:34.509Z,5.17
2019-03-22T00:57:40.125Z,5.17
2019-03-22T00:58:45.720Z,5.21
2019-03-22T00:59:51.335Z,5.30
2019-03-22T01:00:56.605Z,5.53
2019-03-22T01:02:02.196Z,5.47
2019-03-22T01:03:07.787Z,5.42
2019-03-22T01:04:13.424Z,5.35
2019-03-22T01:05:18.733Z,5.33
2019-03-22T01:06:24.291Z,5.30
2019-03-22T01:07:29.872Z,5.32
2019-03-22T01:08:35.472Z,5.44
2019-03-22T01:09:41.118Z,5.61
2019-03-22T01:10:46.326Z,5.73
2019-03-22T01:11:51.917Z,5.66
2019-03-22T01:12:57.506Z,5.52
2019-03-22T01:14:03.106Z,5.38
2019-03-22T01:15:08.012Z,5.31
2019-03-22T01:16:13.646Z,5.21
2019-03-22T01:17:19.263Z,5.19
2019-03-22T01:18:24.846Z,5.07
2019-03-22T01:19:30.454Z,4.99
2019-03-22T01:20:36.064Z,4.95
2019-03-22T01:21:41.624Z,4.85
2019-03-22T01:22:47.248Z,4.79
2019-03-22T01:23:52.830Z,4.71
2019-03-22T01:24:58.470Z,4.66
2019-03-22T01:26:04.091Z,4.61
2019-03-22T01:27:09.684Z,4.60
2019-03-22T01:28:15.271Z,4.60
2019-03-22T01:29:20.865Z,4.63
2019-03-22T01:30:26.483Z,4.64
2019-03-22T01:31:32.056Z,4.65
2019-03-22T01:32:37.658Z,4.66
2019-03-22T01:33:43.261Z,4.63
2019-03-22T01:34:48.937Z,4.62
2019-03-22T01:35:54.493Z,4.65
2019-03-22T01:37:00.048Z,4.71
2019-03-22T01:38:05.629Z,4.77
2019-03-22T01:39:11.226Z,4.95
2019-03-22T01:40:16.171Z,5.06
2019-03-22T01:41:21.804Z,5.14
2019-03-22T01:42:27.392Z,5.04
2019-03-22T01:43:32.978Z,4.94
2019-03-22T01:44:38.609Z,4.99
2019-03-22T01:45:44.212Z,5.08
2019-03-22T01:46:49.815Z,5.22
2019-03-22T01:47:55.401Z,5.06
2019-03-22T01:49:01.003Z,4.84
2019-03-22T01:50:05.936Z,4.78
2019-03-22T01:51:11.169Z,4.75
2019-03-22T01:52:16.760Z,4.76
2019-03-22T01:53:22.351Z,4.83
2019-03-22T01:54:27.940Z,4.79
2019-03-22T01:55:33.579Z,4.80
2019-03-22T01:56:39.143Z,4.85
2019-03-22T01:57:53.170Z,4.84
2019-03-22T01:58:50.057Z,4.84
2019-03-22T01:59:55.695Z,4.80
2019-03-22T02:01:01.322Z,4.76
2019-03-22T02:02:06.231Z,4.78
2019-03-22T02:03:11.845Z,4.79
2019-03-22T02:04:17.069Z,4.79
2019-03-22T02:05:22.298Z,4.82
2019-03-22T02:06:27.882Z,4.82
2019-03-22T02:07:33.538Z,4.80
2019-03-22T02:08:38.782Z,4.75
2019-03-22T02:09:44.381Z,4.71
2019-03-22T02:10:50.036Z,4.68
2019-03-22T02:11:55.644Z,4.65
2019-03-22T02:13:01.261Z,4.64
2019-03-22T02:14:06.836Z,4.62
2019-03-22T02:15:11.788Z,4.60
2019-03-22T02:16:17.369Z,4.57
2019-03-22T02:17:22.962Z,4.54
2019-03-22T02:18:28.537Z,4.54
2019-03-22T02:19:34.111Z,4.52
2019-03-22T02:20:39.751Z,4.49
2019-03-22T02:21:45.360Z,4.47
2019-03-22T02:22:50.916Z,4.46
2019-03-22T02:23:56.508Z,4.44
2019-03-22T02:25:02.147Z,4.41
2019-03-22T02:26:07.808Z,4.42
2019-03-22T02:27:13.382Z,4.40
2019-03-22T02:28:18.995Z,4.39
2019-03-22T02:29:24.609Z,4.43
2019-03-22T02:30:30.247Z,4.49
2019-03-22T02:31:35.846Z,4.57
2019-03-22T02:32:41.060Z,4.60
2019-03-22T02:33:46.615Z,4.59
2019-03-22T02:34:52.210Z,4.60
2019-03-22T02:35:57.840Z,4.63
2019-03-22T02:37:03.438Z,4.74
2019-03-22T02:38:09.035Z,4.90
2019-03-22T02:39:14.662Z,4.83
2019-03-22T02:40:20.259Z,4.69
2019-03-22T02:41:26.050Z,4.50
2019-03-22T02:42:31.671Z,4.42
2019-03-22T02:43:37.259Z,4.43
2019-03-22T02:44:42.830Z,4.45
2019-03-22T02:45:48.451Z,4.61
2019-03-22T02:46:54.010Z,4.80
2019-03-22T02:47:59.651Z,4.77
2019-03-22T02:49:04.931Z,4.63
2019-03-22T02:50:18.246Z,4.48
2019-03-22T02:51:16.419Z,4.33
2019-03-22T02:52:21.990Z,4.29
2019-03-22T02:53:27.595Z,4.28
2019-03-22T02:54:33.229Z,4.28
2019-03-22T02:55:38.840Z,4.26
2019-03-22T02:56:44.463Z,4.23
2019-03-22T02:57:50.134Z,4.26
2019-03-22T02:58:59.161Z,4.27
2019-03-22T03:00:01.357Z,4.25
2019-03-22T03:01:06.438Z,4.24
2019-03-22T03:02:11.368Z,4.22
2019-03-22T03:03:17.006Z,4.24
2019-03-22T03:04:22.597Z,4.29
2019-03-22T03:05:28.257Z,4.37
2019-03-22T03:06:33.867Z,4.43
2019-03-22T03:07:39.451Z,4.45
2019-03-22T03:08:45.118Z,4.38
2019-03-22T03:09:50.690Z,4.37
2019-03-22T03:10:55.989Z,4.34
2019-03-22T03:12:01.270Z,4.30
2019-03-22T03:13:06.913Z,4.30
2019-03-22T03:14:12.504Z,4.33
2019-03-22T03:15:18.210Z,4.29
2019-03-22T03:16:23.821Z,4.27
2019-03-22T03:17:29.440Z,4.23
2019-03-22T03:18:35.034Z,4.22
2019-03-22T03:19:40.619Z,4.22
2019-03-22T03:20:46.248Z,4.29
2019-03-22T03:21:51.831Z,4.48
2019-03-22T03:22:57.047Z,4.58
2019-03-22T03:24:02.632Z,4.66
2019-03-22T03:25:07.556Z,4.56
2019-03-22T03:26:13.206Z,4.34
2019-03-22T03:27:18.789Z,4.24
2019-03-22T03:28:36.156Z,4.20
2019-03-22T03:29:30.031Z,3.96
2019-03-22T03:30:35.656Z,3.99
2019-03-22T03:31:41.238Z,4.00
2019-03-22T03:32:46.876Z,3.98
2019-03-22T03:33:52.474Z,3.99
2019-03-22T03:34:58.079Z,4.05
2019-03-22T03:36:03.891Z,4.11
2019-03-22T03:37:09.178Z,4.09
2019-03-22T03:38:14.408Z,4.07
2019-03-22T03:39:20.021Z,4.07
2019-03-22T03:40:25.644Z,4.09
2019-03-22T03:41:30.950Z,4.20
2019-03-22T03:42:36.220Z,4.42
2019-03-22T03:43:41.809Z,4.26
2019-03-22T03:44:47.444Z,4.09
2019-03-22T03:45:53.058Z,3.87
2019-03-22T03:46:58.650Z,3.79
2019-03-22T03:48:06.362Z,3.79
2019-03-22T03:49:11.941Z,3.88
2019-03-22T03:50:17.496Z,4.15
2019-03-22T03:51:23.104Z,4.49
2019-03-22T03:52:28.713Z,4.48
2019-03-22T03:53:33.939Z,4.34
2019-03-22T03:54:39.545Z,4.17
2019-03-22T03:55:45.270Z,4.06
2019-03-22T03:56:50.883Z,3.96
2019-03-22T03:57:56.529Z,3.92
2019-03-22T03:59:01.803Z,3.91
2019-03-22T04:00:06.689Z,4.03
2019-03-22T04:01:12.339Z,4.24
2019-03-22T04:02:18.006Z,4.19
2019-03-22T04:03:23.582Z,4.12
2019-03-22T04:04:29.189Z,4.08
2019-03-22T04:05:34.842Z,3.98
2019-03-22T04:06:40.504Z,3.96
2019-03-22T04:07:46.071Z,3.92
2019-03-22T04:08:51.696Z,3.99
2019-03-22T04:09:57.285Z,4.27
2019-03-22T04:11:02.946Z,4.31
2019-03-22T04:12:08.539Z,4.18
2019-03-22T04:13:14.136Z,4.03
2019-03-22T04:14:19.730Z,3.79
2019-03-22T04:15:25.041Z,3.69
2019-03-22T04:16:30.729Z,3.60
2019-03-22T04:17:36.351Z,3.61
2019-03-22T04:18:42.000Z,3.64
2019-03-22T04:19:47.615Z,3.69
2019-03-22T04:20:53.238Z,3.72
2019-03-22T04:21:58.881Z,3.74
2019-03-22T04:23:04.161Z,3.71
2019-03-22T04:24:09.743Z,3.66
2019-03-22T04:25:15.031Z,3.64
2019-03-22T04:26:20.661Z,3.58
2019-03-22T04:27:26.302Z,3.60
2019-03-22T04:28:31.894Z,3.63
2019-03-22T04:29:37.487Z,3.67
2019-03-22T04:30:43.075Z,3.71
2019-03-22T04:31:48.722Z,3.73
2019-03-22T04:32:54.303Z,3.74
2019-03-22T04:33:59.934Z,3.75
2019-03-22T04:35:05.810Z,3.74
2019-03-22T04:36:11.481Z,3.73
2019-03-22T04:37:17.059Z,3.76
2019-03-22T04:38:22.656Z,3.93
2019-03-22T04:39:28.319Z,4.05
2019-03-22T04:40:33.894Z,4.09
2019-03-22T04:41:39.574Z,4.17
2019-03-22T04:42:45.257Z,4.03
2019-03-22T04:43:50.875Z,3.87
2019-03-22T04:44:56.145Z,3.78
2019-03-22T04:46:01.095Z,3.79
2019-03-22T04:47:06.006Z,3.80
2019-03-22T04:48:15.532Z,3.84
2019-03-22T04:49:20.464Z,3.83
2019-03-22T04:50:25.421Z,3.85
2019-03-22T04:51:30.329Z,3.87
2019-03-22T04:52:35.579Z,3.80
2019-03-22T04:53:40.463Z,3.70
2019-03-22T04:54:45.360Z,3.63
2019-03-22T04:55:51.020Z,3.53
2019-03-22T04:56:55.946Z,3.50
2019-03-22T04:58:00.848Z,3.53
2019-03-22T04:59:05.792Z,3.53
2019-03-22T05:00:10.664Z,3.50
2019-03-22T05:01:15.601Z,3.47
2019-03-22T05:02:20.493Z,3.39
2019-03-22T05:03:25.404Z,3.15
2019-03-22T05:04:30.288Z,3.04
2019-03-22T05:05:35.497Z,2.99
2019-03-22T05:06:40.422Z,3.01
2019-03-22T05:07:45.357Z,3.11
2019-03-22T05:08:50.269Z,3.19
2019-03-22T05:09:55.166Z,3.21
2019-03-22T05:11:00.092Z,3.22
2019-03-22T05:12:05.122Z,3.26
2019-03-22T05:13:10.135Z,3.26
2019-03-22T05:14:15.066Z,3.31
2019-03-22T05:15:19.973Z,3.39
2019-03-22T05:16:25.246Z,3.70
2019-03-22T05:17:30.194Z,3.99
2019-03-22T05:18:35.095Z,3.93
2019-03-22T05:19:39.982Z,3.82
2019-03-22T05:20:44.886Z,3.81
2019-03-22T05:21:49.834Z,3.78
2019-03-22T05:22:54.724Z,3.70
2019-03-22T05:23:59.815Z,3.73
2019-03-22T05:25:04.746Z,3.85
2019-03-22T05:26:09.951Z,4.05
2019-03-22T05:27:14.956Z,4.00
2019-03-22T05:28:19.837Z,3.99
2019-03-22T05:29:30.417Z,4.15
2019-03-22T05:32:08.010Z,4.04
2019-03-22T05:33:13.591Z,4.02
2019-03-22T05:34:19.218Z,3.95
2019-03-22T05:35:24.826Z,3.94
2019-03-22T05:36:30.470Z,3.93
2019-03-22T05:37:36.129Z,3.94
2019-03-22T05:38:41.750Z,3.86
2019-03-22T05:39:47.320Z,3.72
2019-03-22T05:40:52.936Z,3.65
2019-03-22T05:41:58.232Z,3.64
2019-03-22T05:43:03.854Z,3.66
2019-03-22T05:44:09.470Z,3.62
2019-03-22T05:45:15.072Z,3.66
2019-03-22T05:46:20.681Z,3.67
2019-03-22T05:47:26.304Z,3.67
2019-03-22T05:48:31.916Z,3.69
2019-03-22T05:49:37.537Z,3.70
2019-03-22T05:50:43.118Z,3.65
2019-03-22T05:51:48.357Z,3.63
2019-03-22T05:52:54.012Z,3.53
2019-03-22T05:53:59.619Z,3.47
2019-03-22T05:55:04.526Z,3.44
2019-03-22T05:56:10.129Z,3.46
2019-03-22T05:57:15.776Z,3.46
2019-03-22T05:58:21.395Z,3.46
2019-03-22T05:59:27.023Z,3.46
2019-03-22T06:00:32.588Z,3.48
2019-03-22T06:01:38.224Z,3.48
2019-03-22T06:02:43.859Z,3.51
2019-03-22T06:03:49.455Z,3.45
2019-03-22T06:04:55.036Z,3.46
2019-03-22T06:06:00.620Z,3.41
2019-03-22T06:07:06.209Z,3.34
2019-03-22T06:08:11.836Z,3.36
2019-03-22T06:09:17.424Z,3.46
2019-03-22T06:10:22.992Z,3.40
2019-03-22T06:11:28.557Z,3.44
2019-03-22T06:12:34.193Z,3.42
2019-03-22T06:13:39.747Z,3.53
2019-03-22T06:14:45.344Z,3.69
2019-03-22T06:15:50.910Z,3.60
2019-03-22T06:16:56.512Z,3.49
2019-03-22T06:18:02.123Z,3.52
2019-03-22T06:19:07.796Z,3.50
2019-03-22T06:20:12.721Z,3.50
2019-03-22T06:21:18.302Z,3.52
2019-03-22T06:22:23.930Z,3.48
2019-03-22T06:23:29.560Z,-142.49
2019-03-22T06:24:35.200Z,-142.49
2019-03-22T06:25:40.815Z,-142.49
2019-03-22T06:26:46.480Z,-142.49
2019-03-22T06:27:52.124Z,-142.49
2019-03-22T06:28:57.748Z,-142.49
2019-03-22T06:30:02.983Z,-142.49
2019-03-22T06:31:08.596Z,-142.49
2019-03-22T06:32:14.227Z,-142.49
2019-03-22T06:33:19.499Z,-142.49
2019-03-22T06:34:25.149Z,-142.49
2019-03-22T06:35:30.813Z,-142.49
2019-03-22T06:36:36.048Z,-142.49
2019-03-22T06:37:41.682Z,-142.49
2019-03-22T06:38:47.323Z,-142.49
2019-03-22T06:39:52.917Z,-142.49
2019-03-22T06:40:58.183Z,-142.49
2019-03-22T06:42:03.481Z,-142.49
2019-03-22T06:43:09.149Z,-142.49
2019-03-22T06:44:14.814Z,-142.49
2019-03-22T06:45:20.387Z,-142.49
2019-03-22T06:46:26.167Z,-142.49
2019-03-22T06:47:31.877Z,-142.49
2019-03-22T06:48:37.862Z,-142.49
2019-03-22T06:49:43.350Z,-142.49
2019-03-22T06:50:49.163Z,-142.49
2019-03-22T06:51:54.996Z,-142.49
2019-03-22T06:53:00.925Z,-142.49
2019-03-22T06:54:06.376Z,-142.49
2019-03-22T06:55:11.581Z,-142.49
2019-03-22T06:56:17.376Z,-142.49
2019-03-22T06:57:23.279Z,-142.49
2019-03-22T06:58:29.127Z,-142.49
2019-03-22T06:59:34.757Z,-142.49
2019-03-22T07:00:40.402Z,-142.49
2019-03-22T07:01:46.049Z,-142.49
2019-03-22T07:02:51.714Z,-142.49
2019-03-22T07:03:57.303Z,-142.49
2019-03-22T07:05:02.954Z,-142.49
2019-03-22T07:06:08.551Z,-142.49
2019-03-22T07:07:14.169Z,-142.49
2019-03-22T07:08:19.456Z,-142.49
2019-03-22T07:09:25.085Z,-142.49
2019-03-22T07:10:30.711Z,-142.49
2019-03-22T07:11:36.349Z,-142.49
2019-03-22T07:12:41.950Z,-142.49
2019-03-22T07:13:47.591Z,-142.49
2019-03-22T07:14:53.233Z,-142.49
2019-03-22T07:15:58.889Z,-142.49
2019-03-22T07:17:04.170Z,-142.49
2019-03-22T07:18:09.819Z,-142.49
2019-03-22T07:19:15.463Z,-142.49
2019-03-22T07:20:20.807Z,-142.49
2019-03-22T07:21:26.426Z,-142.49
2019-03-22T07:22:32.017Z,-142.49
2019-03-22T07:23:37.408Z,-142.49
2019-03-22T07:24:42.832Z,-142.49
2019-03-22T07:25:48.471Z,-142.49
2019-03-22T07:26:54.089Z,-142.49
2019-03-22T07:27:59.686Z,-142.49
2019-03-22T07:29:04.632Z,-142.49
2019-03-22T07:30:18.453Z,-142.49
2019-03-22T07:31:15.862Z,-142.49
2019-03-22T07:32:21.468Z,-142.49
2019-03-22T07:33:27.133Z,-142.49
2019-03-22T07:34:32.758Z,-142.49
2019-03-22T07:35:38.015Z,-142.49
2019-03-22T07:36:43.627Z,-142.49
2019-03-22T07:37:49.225Z,-142.49
2019-03-22T07:38:54.870Z,-142.49
2019-03-22T07:40:00.496Z,-142.49
2019-03-22T07:41:06.133Z,-142.49
2019-03-22T07:42:11.750Z,-142.49
2019-03-22T07:43:17.395Z,-142.49
2019-03-22T07:44:23.021Z,-142.49
2019-03-22T07:45:28.617Z,-142.49
2019-03-22T07:46:34.198Z,-142.49
2019-03-22T07:47:39.855Z,-142.49
2019-03-22T07:48:45.517Z,-142.49
2019-03-22T07:49:51.116Z,-142.49
2019-03-22T07:50:56.747Z,-142.49
2019-03-22T07:52:02.382Z,-142.49
2019-03-22T07:53:08.121Z,-142.49
2019-03-22T07:54:13.703Z,-142.49
2019-03-22T07:55:19.323Z,-142.49
2019-03-22T07:56:24.943Z,-142.49
2019-03-22T07:57:30.609Z,-142.49
2019-03-22T07:58:36.216Z,-142.49
2019-03-22T07:59:41.824Z,-142.49
2019-03-22T08:00:47.390Z,-142.49
2019-03-22T08:01:53.029Z,-142.49
2019-03-22T08:02:58.612Z,-142.49
2019-03-22T08:04:03.913Z,-142.49
2019-03-22T08:05:09.264Z,-142.49
2019-03-22T08:06:14.894Z,-142.49
2019-03-22T08:07:20.525Z,-142.49
2019-03-22T08:08:26.123Z,-142.49
2019-03-22T08:09:31.788Z,-142.49
2019-03-22T08:10:37.915Z,-142.49
2019-03-22T08:11:43.572Z,-142.49
2019-03-22T08:12:49.300Z,-142.49
2019-03-22T08:13:54.988Z,-142.49
2019-03-22T08:15:00.713Z,-142.49
2019-03-22T08:16:06.346Z,-142.49
2019-03-22T08:17:11.977Z,-142.49
2019-03-22T08:18:17.610Z,-142.49
2019-03-22T08:19:23.223Z,-142.49
2019-03-22T08:20:28.276Z,-142.49
2019-03-22T08:21:33.844Z,-142.49
2019-03-22T08:22:38.940Z,-142.49
2019-03-22T08:23:44.562Z,-142.49
2019-03-22T08:24:50.291Z,-142.49
2019-03-22T08:25:55.874Z,-142.49
2019-03-22T08:27:01.448Z,-142.49
2019-03-22T08:28:07.089Z,-142.49
2019-03-22T08:29:12.725Z,-142.49
2019-03-22T08:30:18.322Z,-142.49
2019-03-22T08:31:25.108Z,-142.49
2019-03-22T08:32:31.325Z,-142.49
2019-03-22T08:33:36.984Z,-142.49
2019-03-22T08:34:42.643Z,-142.49
2019-03-22T08:35:48.312Z,-142.49
2019-03-22T08:36:53.975Z,-142.49
2019-03-22T08:37:59.627Z,-142.49
2019-03-22T08:39:04.349Z,-142.49
2019-03-22T08:40:09.283Z,-142.49
2019-03-22T08:41:15.145Z,-142.49
2019-03-22T08:42:20.716Z,-142.49
2019-03-22T08:43:26.394Z,-142.49
2019-03-22T08:44:32.055Z,-142.49
2019-03-22T08:45:37.675Z,-142.49
2019-03-22T08:46:45.023Z,-142.49
2019-03-22T08:47:49.048Z,-142.49
2019-03-22T08:48:54.711Z,-142.49
2019-03-22T08:50:00.453Z,-142.49
2019-03-22T08:51:06.034Z,-142.49
2019-03-22T08:52:11.636Z,-142.49
2019-03-22T08:53:17.268Z,-142.49
2019-03-22T08:54:22.935Z,-142.49
2019-03-22T08:55:28.586Z,-142.49
2019-03-22T08:56:36.115Z,-142.49
2019-03-22T08:57:39.940Z,-142.49
2019-03-22T08:58:45.569Z,-142.49
2019-03-22T08:59:51.252Z,-142.49
2019-03-22T09:00:58.088Z,-142.49
2019-03-22T09:02:02.581Z,-142.49
2019-03-22T09:03:07.844Z,-142.49
2019-03-22T09:04:13.517Z,-142.49
2019-03-22T09:05:18.874Z,-142.49
2019-03-22T09:06:24.499Z,-142.49
2019-03-22T09:07:30.126Z,-142.49
2019-03-22T09:08:35.776Z,-142.49
2019-03-22T09:09:42.045Z,-142.49
2019-03-22T09:10:47.023Z,-142.49
2019-03-22T09:11:52.679Z,-142.49
2019-03-22T09:12:58.281Z,-142.49
2019-03-22T09:14:03.908Z,-142.49
2019-03-22T09:15:08.869Z,-142.49
2019-03-22T09:16:14.314Z,-142.49
2019-03-22T09:17:19.578Z,-142.49
2019-03-22T09:18:25.212Z,-142.49
2019-03-22T09:19:30.843Z,-142.49
2019-03-22T09:20:36.512Z,-142.49
2019-03-22T09:21:42.157Z,-142.49
2019-03-22T09:22:47.823Z,-142.49
2019-03-22T09:23:53.614Z,-142.49
2019-03-22T09:24:59.296Z,-142.49
2019-03-22T09:26:04.374Z,-142.49
2019-03-22T09:27:10.065Z,-142.49
2019-03-22T09:28:15.744Z,-142.49
2019-03-22T09:29:21.390Z,-142.49
2019-03-22T09:30:27.112Z,-142.49
2019-03-22T09:31:32.706Z,-142.49
2019-03-22T09:32:38.318Z,-142.49
2019-03-22T09:33:43.950Z,-142.49
2019-03-22T09:34:49.591Z,-142.49
2019-03-22T09:35:55.264Z,-142.49
2019-03-22T09:37:00.955Z,-142.49
2019-03-22T09:38:12.672Z,-142.49
2019-03-22T09:39:12.229Z,-142.49
2019-03-22T09:40:17.197Z,-142.49
2019-03-22T09:41:22.884Z,-142.49
2019-03-22T09:42:28.510Z,-142.49
2019-03-22T09:43:33.765Z,-142.49
2019-03-22T09:44:46.592Z,-142.49
2019-03-22T09:45:44.369Z,-142.49
2019-03-22T09:46:49.986Z,-142.49
2019-03-22T09:47:55.572Z,-142.49
2019-03-22T09:49:01.234Z,-142.49
2019-03-22T09:50:06.882Z,-142.49
2019-03-22T09:51:12.523Z,-142.49
2019-03-22T09:52:18.135Z,-142.49
2019-03-22T09:53:23.834Z,-142.49
2019-03-22T09:54:29.393Z,-142.49
2019-03-22T09:55:36.072Z,-142.49
2019-03-22T09:56:46.782Z,-142.49
2019-03-22T09:57:49.374Z,-142.49
2019-03-22T09:58:52.733Z,-142.49
2019-03-22T09:59:58.316Z,-142.49
2019-03-22T10:01:03.685Z,-142.49
2019-03-22T10:02:09.324Z,-142.49
2019-03-22T10:03:14.966Z,-142.49
2019-03-22T10:04:20.717Z,-142.49
2019-03-22T10:05:26.331Z,-142.49
2019-03-22T10:06:32.045Z,-142.49
2019-03-22T10:07:37.672Z,-142.49
2019-03-22T10:08:43.269Z,-142.49
2019-03-22T10:09:48.936Z,-142.49
2019-03-22T10:10:54.534Z,-142.49
2019-03-22T10:12:00.174Z,-142.49
2019-03-22T10:13:05.578Z,-142.49
2019-03-22T10:14:11.144Z,-142.49
2019-03-22T10:15:16.755Z,-142.49
2019-03-22T10:16:22.399Z,-142.49
2019-03-22T10:17:28.041Z,-142.49
2019-03-22T10:18:36.678Z,-142.49
2019-03-22T10:19:42.079Z,-142.49
2019-03-22T10:20:44.939Z,-142.49
2019-03-22T10:21:50.576Z,-142.49
2019-03-22T10:22:56.216Z,-142.49
2019-03-22T10:24:01.863Z,-142.49
2019-03-22T10:25:06.908Z,-142.49
2019-03-22T10:26:12.524Z,-142.49
2019-03-22T10:27:18.153Z,-142.49
2019-03-22T10:28:23.790Z,-142.49
2019-03-22T10:29:29.412Z,-142.49
2019-03-22T10:30:35.262Z,-142.49
2019-03-22T10:31:41.036Z,-142.49
2019-03-22T10:32:46.665Z,-142.49
2019-03-22T10:33:53.458Z,-142.49
2019-03-22T10:34:59.283Z,-142.49
2019-03-22T10:36:04.807Z,-142.49
2019-03-22T10:37:10.507Z,-142.49
2019-03-22T10:38:18.300Z,-142.49
2019-03-22T10:39:21.785Z,-142.49
2019-03-22T10:40:27.442Z,-142.49
2019-03-22T10:41:33.083Z,-142.49
2019-03-22T10:42:38.779Z,-142.49
2019-03-22T10:43:44.366Z,-142.49
2019-03-22T10:44:50.177Z,-142.49
2019-03-22T10:45:56.689Z,-142.49
2019-03-22T10:47:02.290Z,-142.49
2019-03-22T10:48:07.876Z,-142.49
2019-03-22T10:49:13.516Z,-142.49
2019-03-22T10:50:19.217Z,-142.49
2019-03-22T10:51:24.828Z,-142.49
2019-03-22T10:52:30.473Z,-142.49
2019-03-22T10:53:36.106Z,-142.49
2019-03-22T10:54:41.746Z,-142.49
2019-03-22T10:55:47.330Z,-142.49
2019-03-22T10:56:52.950Z,-142.49
2019-03-22T10:57:58.589Z,-142.49
2019-03-22T10:59:04.171Z,-142.49
2019-03-22T11:00:09.716Z,-142.49
2019-03-22T11:01:15.425Z,-142.49
2019-03-22T11:02:20.403Z,-142.49
2019-03-22T11:03:26.008Z,-142.49
2019-03-22T11:04:31.630Z,-142.49
2019-03-22T11:05:37.209Z,-142.49
2019-03-22T11:06:42.838Z,-142.49
2019-03-22T11:07:48.454Z,-142.49
2019-03-22T11:08:54.056Z,-142.49
2019-03-22T11:09:59.274Z,-142.49
2019-03-22T11:11:04.879Z,-142.49
2019-03-22T11:12:12.455Z,-142.49
2019-03-22T11:13:15.913Z,-142.49
2019-03-22T11:14:21.564Z,-142.49
2019-03-22T11:15:26.891Z,-142.49
2019-03-22T11:16:32.182Z,-142.49
2019-03-22T11:17:37.803Z,-142.49
2019-03-22T11:18:43.454Z,-142.49
2019-03-22T11:19:49.021Z,-142.49
2019-03-22T11:21:04.474Z,-142.49
2019-03-22T11:22:00.305Z,-142.49
2019-03-22T11:23:05.638Z,-142.49
2019-03-22T11:24:11.326Z,-142.49
2019-03-22T11:25:16.694Z,-142.49
2019-03-22T11:26:22.392Z,-142.49
2019-03-22T11:27:28.007Z,-142.49
2019-03-22T11:28:33.326Z,-142.49
2019-03-22T11:29:38.937Z,-142.49
2019-03-22T11:30:44.525Z,-142.49
2019-03-22T11:31:50.161Z,-142.49
2019-03-22T11:32:55.830Z,-142.49
2019-03-22T11:34:01.447Z,-142.49
2019-03-22T11:35:06.336Z,-142.49
2019-03-22T11:36:11.963Z,-142.49
2019-03-22T11:37:17.186Z,-142.49
2019-03-22T11:38:23.021Z,-142.49
2019-03-22T11:39:28.452Z,-142.49
2019-03-22T11:40:34.130Z,-142.49
2019-03-22T11:41:39.134Z,-142.49
2019-03-22T11:42:44.519Z,-142.49
2019-03-22T11:43:50.156Z,-142.49
2019-03-22T11:44:55.792Z,-142.49
2019-03-22T11:46:01.398Z,-142.49
2019-03-22T11:47:06.616Z,-142.49
2019-03-22T11:48:12.385Z,-142.49
2019-03-22T11:49:17.967Z,-142.49
2019-03-22T11:50:22.983Z,-142.49
2019-03-22T11:51:28.347Z,-142.49
2019-03-22T11:52:34.016Z,-142.49
2019-03-22T11:53:39.318Z,-142.49
2019-03-22T11:54:45.243Z,-142.49
2019-03-22T11:55:50.876Z,-142.49
2019-03-22T11:56:56.484Z,-142.49
2019-03-22T11:58:02.114Z,-142.49
2019-03-22T11:59:07.032Z,-142.49
2019-03-22T12:00:16.439Z,-142.49
2019-03-22T12:01:22.653Z,-142.49
2019-03-22T12:02:27.673Z,-142.49
2019-03-22T12:03:33.399Z,-142.49
2019-03-22T12:04:39.059Z,-142.49
2019-03-22T12:05:44.701Z,-142.49
2019-03-22T12:06:49.969Z,-142.49
2019-03-22T12:07:55.601Z,-142.49
2019-03-22T12:09:01.237Z,-142.49
2019-03-22T12:10:07.100Z,-142.49
2019-03-22T12:11:12.695Z,-142.49
2019-03-22T12:12:18.290Z,-142.49
2019-03-22T12:13:23.916Z,-142.49
2019-03-22T12:14:29.632Z,-142.49
2019-03-22T12:15:35.217Z,-142.49
2019-03-22T12:16:40.518Z,-142.49
2019-03-22T12:17:45.800Z,-142.49
2019-03-22T12:18:51.470Z,-142.49
2019-03-22T12:19:57.108Z,-142.49
2019-03-22T12:21:02.740Z,-142.49
2019-03-22T12:22:08.035Z,-142.49
2019-03-22T12:23:13.679Z,-142.49
2019-03-22T12:24:19.305Z,-142.49
2019-03-22T12:25:24.929Z,-142.49
2019-03-22T12:26:31.304Z,-142.49
2019-03-22T12:27:37.003Z,-142.49
2019-03-22T12:28:42.675Z,-142.49
2019-03-22T12:29:48.397Z,-142.49
2019-03-22T12:30:54.029Z,-142.49
2019-03-22T12:31:59.660Z,-142.49
2019-03-22T12:33:04.580Z,-142.49
2019-03-22T12:34:10.214Z,-142.49
2019-03-22T12:35:15.142Z,-142.49
2019-03-22T12:36:20.744Z,-142.49
2019-03-22T12:37:26.386Z,-142.49
2019-03-22T12:38:31.989Z,-142.49
2019-03-22T12:39:37.649Z,-142.49
2019-03-22T12:40:42.929Z,-142.49
2019-03-22T12:41:48.552Z,-142.49
2019-03-22T12:42:53.849Z,-142.49
2019-03-22T12:43:59.465Z,-142.49
2019-03-22T12:45:06.200Z,-142.49
2019-03-22T12:46:11.851Z,-142.49
2019-03-22T12:47:17.520Z,-142.49
2019-03-22T12:48:23.147Z,-142.49
2019-03-22T12:49:28.799Z,-142.49
2019-03-22T12:50:33.746Z,-142.49
2019-03-22T12:51:39.334Z,-142.49
2019-03-22T12:52:44.270Z,-142.49
2019-03-22T12:53:49.898Z,-142.49
2019-03-22T12:54:55.527Z,-142.49
2019-03-22T12:56:01.160Z,-142.49
2019-03-22T12:57:06.777Z,-142.49
2019-03-22T12:58:12.389Z,-142.49
2019-03-22T12:59:18.046Z,-142.49
2019-03-22T13:00:24.605Z,-142.49
2019-03-22T13:01:30.233Z,-142.49
2019-03-22T13:02:42.241Z,-142.49
2019-03-22T13:03:41.661Z,-142.49
2019-03-22T13:04:47.472Z,-142.49
2019-03-22T13:05:52.390Z,-142.49
2019-03-22T13:06:58.031Z,-142.49
2019-03-22T13:08:03.282Z,-142.49
2019-03-22T13:09:08.204Z,-142.49
2019-03-22T13:10:29.723Z,-142.49
2019-03-22T13:11:35.306Z,-142.49
2019-03-22T13:12:40.919Z,-142.49
2019-03-22T13:13:46.586Z,-142.49
2019-03-22T13:14:52.232Z,-142.49
2019-03-22T13:15:57.882Z,-142.49
2019-03-22T13:17:03.493Z,-142.49
2019-03-22T13:18:09.092Z,-142.49
2019-03-22T13:19:14.680Z,-142.49
2019-03-22T13:20:19.632Z,-142.49
2019-03-22T13:21:25.542Z,-142.49
2019-03-22T13:22:34.687Z,-142.49
2019-03-22T13:23:40.363Z,-142.49
2019-03-22T13:24:45.971Z,-142.49
2019-03-22T13:25:51.636Z,-142.49
2019-03-22T13:26:57.211Z,-142.49
2019-03-22T13:28:02.868Z,-142.49
2019-03-22T13:29:08.556Z,-142.49
2019-03-22T13:30:16.776Z,-142.49
2019-03-22T13:31:22.366Z,-142.49
2019-03-22T13:32:28.006Z,-142.49
2019-03-22T13:33:33.627Z,-142.49
2019-03-22T13:34:39.196Z,-142.49
2019-03-22T13:35:44.832Z,-142.49
2019-03-22T13:36:50.426Z,-142.49
2019-03-22T13:37:56.028Z,-142.49
2019-03-22T13:39:01.665Z,-142.49
2019-03-22T13:40:06.617Z,-142.49
2019-03-22T13:41:12.265Z,-142.49
2019-03-22T13:42:17.895Z,-142.49
2019-03-22T13:43:23.551Z,-142.49
2019-03-22T13:44:29.272Z,-142.49
2019-03-22T13:45:34.875Z,-142.49
2019-03-22T13:46:40.817Z,-142.49
2019-03-22T13:47:46.115Z,-142.49
2019-03-22T13:48:51.755Z,-142.49
2019-03-22T13:49:57.355Z,-142.49